Time;durP1;ratioP1;P1;durP2;ratioP2;P2;SDS_P1;SDS_P2;PMS_P1;PMS_P2;Temp;Humidity;BMP_temperature;BMP_pressure;BME280_temperature;BME280_humidity;BME280_pressure;Samples;Min_cycle;Max_cycle;Signal;HPM_P1;HPM_P2
2023/01/27 00:01:46;;;;;;;4.97;3.40;;;5.30;99.90;;;;;;5073688;28;20173;-73
2023/01/27 00:04:12;;;;;;;5.93;4.10;;;5.20;99.90;;;;;;5072836;28;20227;-71
2023/01/27 00:06:37;;;;;;;6.37;4.13;;;5.20;99.90;;;;;;5073132;28;20408;-72
2023/01/27 00:09:03;;;;;;;5.97;3.67;;;5.20;99.90;;;;;;5053341;28;20203;-73
2023/01/27 00:14:12;;;;;;;9.73;4.17;;;5.20;99.90;;;;;;5053286;28;20702;-73
2023/01/27 00:16:38;;;;;;;5.17;3.23;;;5.20;99.90;;;;;;5053501;28;20441;-72
2023/01/27 00:19:04;;;;;;;7.20;4.97;;;5.10;99.90;;;;;;5058682;28;20202;-72
2023/01/27 00:26:57;;;;;;;6.97;3.50;;;5.20;99.90;;;;;;5058848;28;20936;-73
2023/01/27 00:29:23;;;;;;;7.53;3.43;;;5.20;99.90;;;;;;5072909;28;20432;-72
2023/01/27 00:34:33;;;;;;;5.03;3.10;;;5.20;99.90;;;;;;5072588;28;20204;-72
2023/01/27 00:36:58;;;;;;;8.77;3.77;;;5.30;99.90;;;;;;5068080;28;20417;-72
2023/01/27 00:39:23;;;;;;;6.70;3.60;;;5.30;99.90;;;;;;5052723;28;20203;-73
2023/01/27 00:41:49;;;;;;;6.13;4.17;;;5.30;99.90;;;;;;5052332;28;20632;-73
2023/01/27 00:44:15;;;;;;;7.43;3.90;;;5.30;99.90;;;;;;5052481;28;20163;-69
2023/01/27 00:46:41;;;;;;;10.03;3.00;;;5.30;99.90;;;;;;5052667;28;20199;-71
2023/01/27 00:49:07;;;;;;;7.07;3.37;;;5.30;99.90;;;;;;5053224;28;20260;-72
2023/01/27 00:51:33;;;;;;;3.10;2.80;;;5.30;99.90;;;;;;5052378;28;20453;-73
2023/01/27 00:54:01;;;;;;;4.17;2.93;;;5.40;99.90;;;;;;5063840;28;20820;-71
2023/01/27 00:56:27;;;;;;;3.07;2.40;;;5.30;99.90;;;;;;5072296;28;20159;-73
2023/01/27 00:58:53;;;;;;;9.87;4.00;;;5.30;99.90;;;;;;5072389;28;20482;-72
2023/01/27 01:01:18;;;;;;;4.30;3.27;;;5.30;99.90;;;;;;5071744;28;20197;-73
2023/01/27 01:03:44;;;;;;;8.13;3.17;;;5.30;99.90;;;;;;5083740;28;20172;-73
2023/01/27 01:06:12;;;;;;;3.63;3.33;;;5.40;99.90;;;;;;5070914;28;20522;-73
2023/01/27 01:08:38;;;;;;;5.97;2.83;;;5.30;99.90;;;;;;5072208;28;20201;-73
2023/01/27 01:11:05;;;;;;;5.30;2.93;;;5.40;99.90;;;;;;5071043;28;20463;-72
2023/01/27 01:13:31;;;;;;;8.10;2.77;;;5.40;99.90;;;;;;5071904;28;20493;-72
2023/01/27 01:15:56;;;;;;;7.30;3.60;;;5.30;99.90;;;;;;5072056;28;20808;-73
2023/01/27 01:18:23;;;;;;;9.53;3.70;;;5.30;99.90;;;;;;5064673;28;20193;-73
2023/01/27 01:20:48;;;;;;;7.70;3.43;;;5.30;99.90;;;;;;5071603;28;20540;-73
2023/01/27 01:23:15;;;;;;;8.87;2.90;;;5.30;99.90;;;;;;5072132;28;20408;-73
2023/01/27 01:25:41;;;;;;;11.47;4.87;;;5.40;99.90;;;;;;5071837;28;20193;-72
2023/01/27 01:28:08;;;;;;;7.93;3.93;;;5.30;99.90;;;;;;5072075;28;20427;-73
2023/01/27 01:30:35;;;;;;;12.20;5.23;;;5.30;99.90;;;;;;5072135;28;20397;-73
2023/01/27 01:33:00;;;;;;;16.53;5.30;;;5.10;99.90;;;;;;5071433;28;20452;-73
2023/01/27 01:35:26;;;;;;;7.53;4.87;;;5.10;99.90;;;;;;5070348;28;20864;-72
2023/01/27 01:37:53;;;;;;;8.90;5.17;;;5.10;99.90;;;;;;5071658;28;20182;-72
2023/01/27 01:40:22;;;;;;;6.87;5.13;;;5.00;99.90;;;;;;5071571;28;20170;-72
2023/01/27 01:42:52;;;;;;;9.77;5.20;;;5.00;99.90;;;;;;5071004;28;20498;-73
2023/01/27 01:45:32;;;;;;;15.93;5.57;;;5.10;99.90;;;;;;5071257;28;20921;-73
2023/01/27 01:48:10;;;;;;;8.00;5.30;;;5.10;99.90;;;;;;5071803;28;20396;-72
2023/01/27 01:50:41;;;;;;;8.27;5.30;;;4.90;99.90;;;;;;5071739;28;20737;-73
2023/01/27 01:53:09;;;;;;;8.57;5.23;;;4.90;99.90;;;;;;5053078;28;20862;-72
2023/01/27 01:55:37;;;;;;;10.73;6.50;;;4.90;99.90;;;;;;5051149;28;20404;-70
2023/01/27 01:58:05;;;;;;;11.27;6.17;;;4.90;99.90;;;;;;5051749;28;20417;-71
2023/01/27 02:00:31;;;;;;;11.00;6.33;;;4.90;99.90;;;;;;5051777;28;20414;-70
2023/01/27 02:02:57;;;;;;;11.30;6.47;;;4.80;99.90;;;;;;5067698;28;20791;-72
2023/01/27 02:05:29;;;;;;;13.77;7.10;;;4.80;99.90;;;;;;5071576;28;20257;-70
2023/01/27 02:08:39;;;;;;;11.10;6.93;;;4.90;99.90;;;;;;5071701;28;20203;-71
2023/01/27 02:11:06;;;;;;;10.80;6.33;;;4.90;99.90;;;;;;5060702;28;20510;-70
2023/01/27 02:13:32;;;;;;;11.90;5.10;;;4.90;99.90;;;;;;5051853;28;20456;-70
2023/01/27 02:15:57;;;;;;;10.37;5.50;;;4.90;99.90;;;;;;5051489;28;20420;-71
2023/01/27 02:18:23;;;;;;;13.20;7.50;;;5.00;99.90;;;;;;5051352;28;20190;-70
2023/01/27 02:20:51;;;;;;;15.50;6.57;;;5.00;99.90;;;;;;5051621;28;20182;-72
2023/01/27 02:23:31;;;;;;;7.70;6.47;;;4.90;99.90;;;;;;5063388;28;20416;-70
2023/01/27 02:26:06;;;;;;;13.53;7.00;;;4.90;99.90;;;;;;5071384;28;20408;-70
2023/01/27 02:28:31;;;;;;;10.40;6.23;;;5.00;99.90;;;;;;5071612;28;20419;-70
2023/01/27 02:30:57;;;;;;;14.80;7.80;;;5.00;99.90;;;;;;5071470;28;20439;-70
2023/01/27 02:33:23;;;;;;;11.47;6.30;;;4.90;99.90;;;;;;5059355;28;20199;-70
2023/01/27 02:36:15;;;;;;;12.60;7.20;;;4.80;99.90;;;;;;5051183;28;20777;-70
2023/01/27 02:38:49;;;;;;;11.97;6.70;;;4.80;99.90;;;;;;5051293;28;20448;-70
2023/01/27 02:41:26;;;;;;;11.50;7.03;;;4.80;99.90;;;;;;5052617;28;20759;-71
2023/01/27 02:43:52;;;;;;;17.53;10.37;;;4.80;99.90;;;;;;5052090;28;20401;-70
2023/01/27 02:46:17;;;;;;;13.47;8.07;;;4.80;99.90;;;;;;5086748;28;20465;-71
2023/01/27 02:48:43;;;;;;;12.90;7.90;;;4.80;99.90;;;;;;5071265;28;20218;-71
2023/01/27 02:51:09;;;;;;;9.03;5.70;;;4.80;99.90;;;;;;5071402;28;20178;-73
2023/01/27 02:53:34;;;;;;;10.73;7.47;;;4.80;99.90;;;;;;5067633;28;20253;-73
2023/01/27 02:56:00;;;;;;;16.20;7.70;;;4.80;99.90;;;;;;5049636;28;20173;-73
2023/01/27 02:58:25;;;;;;;10.83;6.97;;;4.80;99.90;;;;;;5051111;28;20551;-72
2023/01/27 03:00:51;;;;;;;7.20;5.60;;;4.80;99.90;;;;;;5051227;28;20173;-72
2023/01/27 03:03:16;;;;;;;10.07;5.53;;;4.70;99.90;;;;;;5051233;28;20173;-72
2023/01/27 03:05:43;;;;;;;7.40;5.20;;;4.60;99.90;;;;;;5071410;28;20182;-70
2023/01/27 03:08:08;;;;;;;10.57;4.40;;;4.60;99.90;;;;;;5074799;28;20198;-73
2023/01/27 03:10:34;;;;;;;4.07;3.67;;;4.70;99.90;;;;;;5065561;28;20417;-74
2023/01/27 03:12:59;;;;;;;6.03;3.37;;;4.70;99.90;;;;;;5060908;28;20513;-73
2023/01/27 03:18:14;;;;;;;2.83;2.53;;;4.70;99.90;;;;;;5054556;28;20189;-73
2023/01/27 03:20:41;;;;;;;5.03;2.70;;;4.60;99.90;;;;;;5071244;28;20411;-72
2023/01/27 03:23:08;;;;;;;5.57;2.30;;;4.60;99.90;;;;;;5080374;28;20413;-73
2023/01/27 03:25:34;;;;;;;4.00;2.47;;;4.40;99.90;;;;;;5072526;28;20816;-72
2023/01/27 03:27:59;;;;;;;2.77;2.10;;;4.50;99.90;;;;;;5052979;28;20471;-71
2023/01/27 03:30:27;;;;;;;3.00;2.37;;;4.40;99.90;;;;;;5054445;28;20405;-72
2023/01/27 03:32:53;;;;;;;6.70;3.00;;;4.50;99.90;;;;;;5054050;28;20167;-72
2023/01/27 03:35:18;;;;;;;7.67;4.20;;;4.50;99.90;;;;;;5068605;28;20794;-72
2023/01/27 03:48:41;;;;;;;4.53;3.20;;;4.60;99.90;;;;;;5053916;28;20566;-73
2023/01/27 03:51:08;;;;;;;20.53;12.80;;;4.60;99.90;;;;;;5055366;28;20421;-73
2023/01/27 03:53:35;;;;;;;11.20;7.10;;;4.60;99.90;;;;;;5073682;28;20209;-72
2023/01/27 03:56:01;;;;;;;5.03;3.83;;;4.60;99.90;;;;;;5072381;28;20440;-72
2023/01/27 03:58:32;;;;;;;4.50;3.27;;;4.70;99.90;;;;;;5073814;28;20436;-72
2023/01/27 04:01:04;;;;;;;5.20;3.53;;;4.60;99.90;;;;;;5073466;28;20412;-73
2023/01/27 04:09:16;;;;;;;7.03;4.13;;;4.60;99.90;;;;;;5069288;28;20509;-72
2023/01/27 04:11:54;;;;;;;4.60;3.40;;;4.70;99.90;;;;;;5058456;28;20775;-70
2023/01/27 04:14:29;;;;;;;6.17;4.20;;;4.70;99.90;;;;;;5073168;28;20456;-72
2023/01/27 04:16:58;;;;;;;4.93;3.53;;;4.60;99.90;;;;;;5072586;28;20901;-73
2023/01/27 04:19:24;;;;;;;8.27;5.03;;;4.60;99.90;;;;;;5073327;28;20408;-72
2023/01/27 04:21:50;;;;;;;8.83;6.03;;;4.60;99.90;;;;;;5069014;28;20922;-73
2023/01/27 04:24:21;;;;;;;9.30;5.80;;;4.70;99.90;;;;;;5053013;28;20405;-72
2023/01/27 04:26:48;;;;;;;5.90;4.33;;;4.70;99.90;;;;;;5053267;28;20890;-72
2023/01/27 04:29:14;;;;;;;11.60;5.30;;;4.70;99.90;;;;;;5053079;28;20417;-71
2023/01/27 04:31:39;;;;;;;7.73;4.40;;;4.70;99.90;;;;;;5060307;28;20428;-71
2023/01/27 04:34:06;;;;;;;8.80;5.10;;;4.70;99.90;;;;;;5071590;28;20281;-71
2023/01/27 04:36:31;;;;;;;7.13;4.90;;;4.70;99.90;;;;;;5072819;28;20392;-72
2023/01/27 04:38:57;;;;;;;6.47;4.80;;;4.70;99.90;;;;;;5071283;28;20475;-72
2023/01/27 04:41:22;;;;;;;6.17;3.60;;;4.70;99.90;;;;;;5072571;28;20190;-73
2023/01/27 04:43:48;;;;;;;7.80;4.63;;;4.70;99.90;;;;;;5072776;28;20209;-71
2023/01/27 04:46:13;;;;;;;5.90;3.60;;;4.70;99.90;;;;;;5071277;28;20703;-71
2023/01/27 04:48:39;;;;;;;6.50;3.60;;;4.80;99.90;;;;;;5088203;28;20190;-70
2023/01/27 04:51:05;;;;;;;7.50;4.17;;;4.70;99.90;;;;;;5072700;28;20166;-70
2023/01/27 04:53:30;;;;;;;8.40;4.20;;;4.70;99.90;;;;;;5053825;28;20336;-72
2023/01/27 04:56:04;;;;;;;8.13;4.63;;;4.70;99.90;;;;;;5067111;28;20197;-71
2023/01/27 04:58:30;;;;;;;7.23;4.73;;;4.70;99.90;;;;;;5072443;28;20181;-71
2023/01/27 05:00:56;;;;;;;10.40;3.60;;;4.60;99.90;;;;;;5072456;28;20399;-71
2023/01/27 05:03:22;;;;;;;7.40;4.30;;;4.50;99.90;;;;;;5072014;28;20174;-70
2023/01/27 05:05:47;;;;;;;8.17;3.70;;;4.50;99.90;;;;;;5072074;28;20178;-69
2023/01/27 05:08:13;;;;;;;7.17;3.67;;;4.40;99.90;;;;;;5060569;28;20199;-71
2023/01/27 05:10:38;;;;;;;6.33;3.80;;;4.40;99.90;;;;;;5070894;28;20170;-71
2023/01/27 05:13:04;;;;;;;7.00;4.20;;;4.40;99.90;;;;;;5072255;28;20173;-72
2023/01/27 05:15:29;;;;;;;4.37;3.20;;;4.30;99.90;;;;;;5072068;28;20236;-70
2023/01/27 05:17:55;;;;;;;4.97;3.30;;;4.20;99.90;;;;;;5072058;28;20509;-71
2023/01/27 05:20:21;;;;;;;6.57;3.60;;;4.10;99.90;;;;;;5069979;28;20408;-71
2023/01/27 05:22:46;;;;;;;5.20;3.17;;;4.10;99.90;;;;;;5062259;28;20220;-70
2023/01/27 05:25:12;;;;;;;5.47;3.00;;;4.10;99.90;;;;;;5051904;28;20401;-73
2023/01/27 05:27:38;;;;;;;4.10;2.70;;;4.20;99.90;;;;;;5052126;28;20171;-71
2023/01/27 05:30:04;;;;;;;5.53;3.43;;;4.20;99.90;;;;;;5064781;28;20198;-71
2023/01/27 05:32:29;;;;;;;6.20;3.53;;;4.20;99.90;;;;;;5072171;28;20666;-72
2023/01/27 05:34:55;;;;;;;9.87;3.70;;;4.30;99.90;;;;;;5071629;28;20457;-73
2023/01/27 05:37:20;;;;;;;4.60;3.03;;;4.30;99.90;;;;;;5071820;28;20174;-71
2023/01/27 05:39:45;;;;;;;12.53;3.57;;;4.30;99.90;;;;;;5071650;28;20190;-72
2023/01/27 05:42:11;;;;;;;5.27;3.40;;;4.40;99.90;;;;;;5071928;28;20162;-71
2023/01/27 05:44:37;;;;;;;6.77;4.20;;;4.30;99.90;;;;;;5076095;28;20190;-72
2023/01/27 05:47:04;;;;;;;7.60;3.93;;;4.40;99.90;;;;;;5092060;28;20494;-73
2023/01/27 05:49:30;;;;;;;9.90;4.73;;;4.40;99.90;;;;;;5082986;28;20193;-72
2023/01/27 05:51:55;;;;;;;5.03;3.70;;;4.50;99.90;;;;;;5071599;28;20422;-72
2023/01/27 05:54:21;;;;;;;5.87;4.40;;;4.50;99.90;;;;;;5065809;28;20667;-72
2023/01/27 05:56:46;;;;;;;9.23;5.63;;;4.60;99.90;;;;;;5060089;28;20227;-70
2023/01/27 05:59:12;;;;;;;6.23;5.10;;;4.60;99.90;;;;;;5071182;28;20193;-70
2023/01/27 06:01:38;;;;;;;7.97;5.57;;;4.60;99.90;;;;;;5062042;28;20257;-69
2023/01/27 06:04:04;;;;;;;8.93;5.40;;;4.60;99.90;;;;;;5070329;28;20178;-69
2023/01/27 06:06:31;;;;;;;8.70;5.37;;;4.60;99.90;;;;;;5071620;28;20178;-69
2023/01/27 06:08:58;;;;;;;9.87;4.73;;;4.70;99.90;;;;;;5071690;28;20425;-71
2023/01/27 06:11:25;;;;;;;7.70;5.33;;;4.70;99.90;;;;;;5071261;28;20416;-71
2023/01/27 06:13:52;;;;;;;7.23;4.23;;;4.70;99.90;;;;;;5071586;28;20459;-71
2023/01/27 06:16:19;;;;;;;8.73;5.53;;;4.70;99.90;;;;;;5071322;28;20962;-70
2023/01/27 06:18:46;;;;;;;7.77;5.23;;;4.70;99.90;;;;;;5068017;28;20433;-71
2023/01/27 06:21:13;;;;;;;8.60;5.50;;;4.70;99.90;;;;;;5065401;28;20416;-71
2023/01/27 06:23:39;;;;;;;7.60;4.13;;;4.80;99.90;;;;;;5070019;28;20431;-71
2023/01/27 06:26:15;;;;;;;6.20;4.53;;;4.70;99.90;;;;;;5052015;28;20516;-72
2023/01/27 06:28:41;;;;;;;6.40;4.70;;;4.80;99.90;;;;;;5051376;28;20190;-72
2023/01/27 06:31:18;;;;;;;7.73;5.33;;;4.80;99.90;;;;;;5064599;28;20432;-72
2023/01/27 06:33:44;;;;;;;6.33;4.53;;;4.80;99.90;;;;;;5071291;28;20536;-72
2023/01/27 06:36:12;;;;;;;5.43;3.67;;;4.80;99.90;;;;;;5066927;28;20467;-72
2023/01/27 06:38:38;;;;;;;6.60;4.83;;;4.80;99.90;;;;;;5051190;28;20950;-72
2023/01/27 06:41:04;;;;;;;9.67;5.53;;;4.80;99.90;;;;;;5052608;28;20429;-72
2023/01/27 06:43:30;;;;;;;11.67;4.03;;;4.90;99.90;;;;;;5055338;28;20249;-72
2023/01/27 06:45:56;;;;;;;7.30;4.37;;;4.90;99.90;;;;;;5055093;28;20175;-72
2023/01/27 06:48:22;;;;;;;7.80;5.90;;;4.90;99.90;;;;;;5072428;28;20440;-72
2023/01/27 06:50:48;;;;;;;7.60;5.63;;;4.90;99.90;;;;;;5077320;28;20424;-72
2023/01/27 06:53:13;;;;;;;10.07;6.73;;;4.90;99.90;;;;;;5084460;28;20416;-72
2023/01/27 06:55:40;;;;;;;7.17;5.37;;;4.90;99.90;;;;;;5074320;28;20181;-72
2023/01/27 06:58:07;;;;;;;10.60;7.33;;;4.90;99.90;;;;;;5074752;28;20568;-72
2023/01/27 07:00:34;;;;;;;10.73;5.43;;;4.90;99.90;;;;;;5075056;28;20404;-72
2023/01/27 07:02:59;;;;;;;6.60;4.87;;;4.90;99.90;;;;;;5074785;28;20462;-71
2023/01/27 07:05:25;;;;;;;8.27;5.50;;;5.00;99.90;;;;;;5061668;28;20433;-72
2023/01/27 07:07:51;;;;;;;10.80;6.37;;;4.90;99.90;;;;;;5054840;28;20250;-72
2023/01/27 07:10:16;;;;;;;6.67;4.80;;;4.90;99.90;;;;;;5053588;28;20209;-72
2023/01/27 07:12:42;;;;;;;10.37;4.97;;;4.90;99.90;;;;;;5054716;28;20398;-72
2023/01/27 07:15:09;;;;;;;11.33;7.00;;;5.00;99.90;;;;;;5054250;28;20198;-72
2023/01/27 07:17:35;;;;;;;9.60;5.30;;;5.00;99.90;;;;;;5068291;28;20182;-72
2023/01/27 07:20:01;;;;;;;10.87;5.57;;;5.00;99.90;;;;;;5073357;28;20948;-72
2023/01/27 07:22:27;;;;;;;6.70;4.67;;;4.90;99.90;;;;;;5074229;28;20416;-72
2023/01/27 07:24:54;;;;;;;9.60;5.30;;;4.90;99.90;;;;;;5073011;28;20421;-71
2023/01/27 07:27:20;;;;;;;10.43;6.30;;;4.90;99.90;;;;;;5074461;28;20170;-72
2023/01/27 07:29:46;;;;;;;7.07;5.00;;;4.90;99.90;;;;;;5056774;28;20565;-72
2023/01/27 07:32:11;;;;;;;10.03;5.80;;;5.00;99.90;;;;;;5054155;28;20835;-71
2023/01/27 07:34:37;;;;;;;10.40;6.10;;;5.00;99.90;;;;;;5053931;28;20203;-71
2023/01/27 07:37:04;;;;;;;9.33;5.60;;;4.90;99.90;;;;;;5054142;28;20169;-71
2023/01/27 07:39:30;;;;;;;12.00;6.20;;;5.00;99.90;;;;;;5054692;28;20343;-71
2023/01/27 07:41:56;;;;;;;8.30;5.43;;;5.00;99.90;;;;;;5063925;28;20500;-70
2023/01/27 07:44:22;;;;;;;10.40;5.87;;;5.00;99.90;;;;;;5053796;28;20504;-71
2023/01/27 07:46:47;;;;;;;8.27;5.50;;;5.00;99.90;;;;;;5054044;28;20485;-71
2023/01/27 07:49:13;;;;;;;10.37;5.73;;;5.10;99.90;;;;;;5053784;28;20245;-70
2023/01/27 07:51:38;;;;;;;6.80;5.33;;;5.00;99.90;;;;;;5053063;28;20258;-71
2023/01/27 07:54:04;;;;;;;16.47;6.10;;;5.00;99.90;;;;;;5053991;28;20256;-71
2023/01/27 07:56:31;;;;;;;7.77;4.90;;;5.00;99.90;;;;;;5053497;28;20167;-71
2023/01/27 07:58:57;;;;;;;6.93;4.47;;;5.10;99.90;;;;;;5053289;28;20421;-71
2023/01/27 08:01:23;;;;;;;9.40;5.50;;;5.20;99.90;;;;;;5053895;28;20401;-71
2023/01/27 08:03:48;;;;;;;6.90;4.43;;;5.30;99.90;;;;;;5086057;28;20782;-71
2023/01/27 08:06:14;;;;;;;8.37;6.17;;;5.40;99.90;;;;;;5073337;28;20166;-71
2023/01/27 08:08:39;;;;;;;10.33;6.50;;;5.50;99.90;;;;;;5072255;28;20190;-71
2023/01/27 08:11:07;;;;;;;13.47;7.60;;;5.50;99.90;;;;;;5073421;28;20712;-72
2023/01/27 08:13:34;;;;;;;10.53;5.40;;;5.50;99.90;;;;;;5073584;28;20200;-71
2023/01/27 08:16:02;;;;;;;9.87;6.27;;;5.70;99.90;;;;;;5072377;28;20425;-71
2023/01/27 08:18:28;;;;;;;9.43;5.50;;;5.70;99.90;;;;;;5073266;28;20466;-71
2023/01/27 08:20:54;;;;;;;9.83;5.97;;;5.80;99.90;;;;;;5073523;28;20397;-71
2023/01/27 08:23:21;;;;;;;7.40;5.13;;;5.80;99.90;;;;;;5082962;28;20918;-72
2023/01/27 08:25:51;;;;;;;9.70;6.40;;;5.90;99.90;;;;;;5053118;28;20413;-72
2023/01/27 08:28:18;;;;;;;10.23;6.90;;;6.00;99.90;;;;;;5053230;28;20428;-72
2023/01/27 08:30:44;;;;;;;9.30;6.23;;;6.00;99.90;;;;;;5059048;28;20412;-72
2023/01/27 08:33:10;;;;;;;11.67;6.90;;;6.10;99.90;;;;;;5072287;28;20427;-72
2023/01/27 08:35:37;;;;;;;9.57;6.17;;;6.10;99.90;;;;;;5072724;28;20405;-72
2023/01/27 08:38:03;;;;;;;9.60;6.60;;;6.20;99.90;;;;;;5072980;28;20235;-72
2023/01/27 08:40:28;;;;;;;9.13;5.53;;;6.30;99.90;;;;;;5063673;28;20417;-72
2023/01/27 08:42:54;;;;;;;8.80;6.43;;;6.30;99.90;;;;;;5052648;28;20167;-72
2023/01/27 08:45:19;;;;;;;8.80;5.90;;;6.40;99.90;;;;;;5052674;28;20277;-72
2023/01/27 08:47:45;;;;;;;8.60;6.03;;;6.50;99.90;;;;;;5052535;28;20259;-72
2023/01/27 08:50:11;;;;;;;9.20;6.80;;;6.50;99.90;;;;;;5052834;28;20658;-72
2023/01/27 08:52:37;;;;;;;9.00;6.07;;;6.50;99.90;;;;;;5057027;28;20198;-72
2023/01/27 08:55:03;;;;;;;9.40;5.40;;;6.50;99.90;;;;;;5072224;28;20201;-71
2023/01/27 08:57:31;;;;;;;8.60;5.40;;;6.50;99.90;;;;;;5063406;28;21015;-71
2023/01/27 08:59:57;;;;;;;9.00;5.70;;;6.70;99.90;;;;;;5052608;28;20429;-71
2023/01/27 09:02:23;;;;;;;11.20;6.20;;;6.90;99.90;;;;;;5052451;28;20467;-71
2023/01/27 09:04:49;;;;;;;15.57;5.30;;;7.10;99.90;;;;;;5052144;28;20405;-71
2023/01/27 09:07:15;;;;;;;7.30;5.20;;;7.20;99.90;;;;;;5052603;28;20412;-71
2023/01/27 09:09:40;;;;;;;7.00;4.87;;;7.10;99.90;;;;;;5052804;28;20524;-71
2023/01/27 09:12:06;;;;;;;6.07;4.87;;;7.30;99.90;;;;;;5052535;28;20163;-71
2023/01/27 09:14:32;;;;;;;8.27;5.30;;;7.40;99.90;;;;;;5074295;28;20185;-71
2023/01/27 09:16:58;;;;;;;5.30;4.00;;;7.40;99.90;;;;;;5075716;28;20241;-71
2023/01/27 09:19:23;;;;;;;6.03;4.40;;;7.40;99.90;;;;;;5072205;28;20519;-72
2023/01/27 09:21:49;;;;;;;6.20;4.40;;;7.50;99.90;;;;;;5071914;28;20691;-71
2023/01/27 09:24:16;;;;;;;4.70;3.67;;;7.60;99.90;;;;;;5054757;28;20179;-72
2023/01/27 09:26:42;;;;;;;7.63;4.77;;;7.80;99.90;;;;;;5052289;28;20170;-71
2023/01/27 09:29:08;;;;;;;7.13;4.10;;;7.80;99.90;;;;;;5051997;28;20475;-71
2023/01/27 09:31:33;;;;;;;6.47;4.23;;;7.70;99.90;;;;;;5050757;28;20413;-72
2023/01/27 09:33:59;;;;;;;6.17;4.03;;;7.80;99.90;;;;;;5062145;28;20190;-72
2023/01/27 09:36:26;;;;;;;4.10;3.60;;;7.90;99.90;;;;;;5071853;28;20196;-72
2023/01/27 09:38:57;;;;;;;5.83;4.20;;;8.00;99.90;;;;;;5055860;28;20210;-72
2023/01/27 09:42:18;;;;;;;5.27;3.30;;;8.10;99.90;;;;;;5052141;28;20407;-71
2023/01/27 09:45:02;;;;;;;5.50;4.40;;;8.20;99.90;;;;;;5009603;28;20530;-70
2023/01/27 09:47:51;;;;;;;7.17;4.30;;;8.50;99.90;;;;;;5010231;28;20507;-71
2023/01/27 09:50:25;;;;;;;4.60;3.50;;;8.60;99.90;;;;;;5040944;28;20779;-71
2023/01/27 09:53:04;;;;;;;4.70;3.17;;;8.70;99.90;;;;;;5064499;28;20416;-71
2023/01/27 09:55:29;;;;;;;5.87;3.93;;;8.90;99.90;;;;;;5071526;28;20392;-72
2023/01/27 09:58:13;;;;;;;4.80;3.63;;;8.90;99.90;;;;;;5070413;28;20393;-72
2023/01/27 10:01:05;;;;;;;4.10;3.67;;;8.50;99.90;;;;;;5071742;28;20639;-71
2023/01/27 10:04:01;;;;;;;3.93;3.27;;;8.50;99.90;;;;;;5062876;28;20413;-71
2023/01/27 10:06:54;;;;;;;6.77;4.87;;;8.30;99.90;;;;;;5052729;28;20405;-71
2023/01/27 10:09:47;;;;;;;4.43;4.03;;;8.00;99.90;;;;;;5051615;28;20432;-71
2023/01/27 10:12:32;;;;;;;5.20;4.13;;;7.90;99.90;;;;;;5051712;28;20755;-71
2023/01/27 10:14:58;;;;;;;3.93;3.63;;;8.00;99.90;;;;;;5052415;28;20995;-71
2023/01/27 10:17:30;;;;;;;3.60;2.90;;;7.90;99.90;;;;;;5054375;28;20442;-71
2023/01/27 10:20:01;;;;;;;4.67;3.70;;;7.80;99.90;;;;;;5055663;28;20190;-72
2023/01/27 10:22:39;;;;;;;5.00;4.00;;;7.60;99.90;;;;;;5064093;28;20824;-71
2023/01/27 10:25:24;;;;;;;6.07;4.67;;;7.60;99.90;;;;;;5076422;28;20412;-71
2023/01/27 10:27:55;;;;;;;5.40;3.90;;;7.60;99.90;;;;;;5076938;28;20420;-71
2023/01/27 10:30:36;;;;;;;3.40;3.07;;;7.60;99.90;;;;;;5075301;28;20435;-71
2023/01/27 10:33:24;;;;;;;3.63;3.33;;;7.70;99.90;;;;;;5075531;28;20442;-71
2023/01/27 10:35:58;;;;;;;4.43;3.20;;;7.70;99.90;;;;;;5067859;28;20422;-72
2023/01/27 10:38:48;;;;;;;7.13;3.13;;;7.70;99.90;;;;;;5055203;28;20518;-71
2023/01/27 10:41:28;;;;;;;5.23;4.20;;;7.80;99.90;;;;;;5055533;28;20421;-71
2023/01/27 10:44:18;;;;;;;5.23;3.23;;;7.70;99.90;;;;;;5055305;28;20401;-71
2023/01/27 10:47:23;;;;;;;7.30;4.30;;;7.70;99.90;;;;;;5055074;28;20945;-71
2023/01/27 10:49:56;;;;;;;5.80;3.90;;;7.60;99.90;;;;;;5031153;28;20475;-71
2023/01/27 10:52:30;;;;;;;4.30;3.33;;;7.70;99.90;;;;;;5059094;28;20773;-71
2023/01/27 10:55:20;;;;;;;4.17;3.13;;;7.60;99.90;;;;;;5054810;28;20441;-71
2023/01/27 10:57:52;;;;;;;4.40;4.00;;;7.50;99.90;;;;;;5053677;28;20508;-71
2023/01/27 11:00:30;;;;;;;4.07;3.67;;;7.50;99.90;;;;;;5055013;28;20755;-71
2023/01/27 11:03:08;;;;;;;5.47;3.53;;;7.50;99.90;;;;;;5054816;28;20425;-71
2023/01/27 11:05:41;;;;;;;4.17;3.70;;;7.50;99.90;;;;;;5074035;28;20428;-71
2023/01/27 11:08:14;;;;;;;6.57;4.10;;;7.60;99.90;;;;;;5074761;28;20469;-72
2023/01/27 11:11:42;;;;;;;5.10;4.00;;;7.70;99.90;;;;;;5061020;28;20569;-71
2023/01/27 11:13:30;;;;;;;4.10;3.67;;;8.00;99.90;;;;;;5054433;28;21016;-71
2023/01/27 11:15:57;;;;;;;3.80;3.40;;;8.40;99.90;;;;;;5053962;28;20397;-71
2023/01/27 11:18:27;;;;;;;5.20;4.17;;;8.80;99.90;;;;;;5052957;28;20441;-71
2023/01/27 11:20:57;;;;;;;3.50;3.13;;;9.20;99.90;;;;;;5066779;28;20782;-71
2023/01/27 11:23:29;;;;;;;4.37;3.73;;;9.50;99.90;;;;;;5054439;28;20413;-71
2023/01/27 11:26:18;;;;;;;4.60;2.90;;;9.60;99.90;;;;;;5053749;28;20425;-72
2023/01/27 11:29:18;;;;;;;5.33;3.33;;;9.80;99.90;;;;;;5054407;28;20819;-72
2023/01/27 11:32:07;;;;;;;5.10;4.00;;;9.70;99.90;;;;;;5061292;28;20420;-71
2023/01/27 11:34:40;;;;;;;3.73;3.03;;;9.80;99.90;;;;;;5079134;28;20498;-72
2023/01/27 11:37:21;;;;;;;3.10;2.80;;;9.60;99.90;;;;;;5090830;28;20517;-71
2023/01/27 11:39:47;;;;;;;3.67;2.70;;;9.50;99.90;;;;;;5094461;28;20432;-71
2023/01/27 11:42:13;;;;;;;3.87;2.70;;;9.50;99.90;;;;;;5094429;28;20897;-71
2023/01/27 11:44:40;;;;;;;4.37;3.47;;;9.40;99.90;;;;;;5079249;28;20424;-71
2023/01/27 11:47:07;;;;;;;4.83;3.70;;;9.30;99.90;;;;;;5074082;28;20409;-71
2023/01/27 11:49:42;;;;;;;3.17;2.67;;;9.30;99.90;;;;;;5073869;28;20423;-71
2023/01/27 11:52:19;;;;;;;2.43;2.20;;;9.20;99.90;;;;;;5074110;28;20479;-71
2023/01/27 11:54:58;;;;;;;3.67;3.13;;;9.00;99.90;;;;;;5057585;28;20449;-71
2023/01/27 11:57:26;;;;;;;3.23;2.60;;;9.00;99.90;;;;;;5052551;28;20451;-71
2023/01/27 12:00:22;;;;;;;3.00;2.57;;;9.00;99.90;;;;;;5053740;28;20436;-71
2023/01/27 12:03:08;;;;;;;2.70;2.07;;;8.90;99.90;;;;;;5042317;28;20470;-71
2023/01/27 12:05:40;;;;;;;2.90;2.60;;;9.00;99.90;;;;;;5053348;28;20551;-71
2023/01/27 12:08:05;;;;;;;4.37;2.87;;;8.90;99.90;;;;;;5053318;28;20424;-71
2023/01/27 12:10:42;;;;;;;4.40;3.00;;;8.80;99.90;;;;;;5053452;28;20882;-71
2023/01/27 12:13:19;;;;;;;2.60;2.40;;;8.80;99.90;;;;;;5053551;28;20537;-71
2023/01/27 12:15:59;;;;;;;3.60;2.97;;;8.80;99.90;;;;;;5061417;28;20455;-71
2023/01/27 12:18:25;;;;;;;3.47;2.70;;;8.70;99.90;;;;;;5059977;28;20965;-71
2023/01/27 12:21:00;;;;;;;3.30;2.47;;;8.90;99.90;;;;;;5053718;28;20937;-71
2023/01/27 12:23:32;;;;;;;2.83;2.10;;;8.90;99.90;;;;;;5053288;28;20459;-71
2023/01/27 12:26:01;;;;;;;2.40;2.20;;;8.90;99.90;;;;;;5053194;28;20412;-71
2023/01/27 12:28:42;;;;;;;2.73;2.20;;;8.60;99.90;;;;;;5053372;28;20448;-71
2023/01/27 12:31:11;;;;;;;2.30;2.03;;;8.50;99.90;;;;;;5053057;28;20409;-71
2023/01/27 12:33:45;;;;;;;1.60;1.50;;;8.50;99.90;;;;;;5053051;28;20975;-72
2023/01/27 12:36:15;;;;;;;2.30;1.70;;;8.40;99.90;;;;;;5052891;28;21186;-71
2023/01/27 12:38:49;;;;;;;1.50;1.30;;;8.40;99.90;;;;;;5052027;28;20445;-72
2023/01/27 12:41:24;;;;;;;2.03;1.73;;;8.40;99.90;;;;;;5052874;28;20764;-71
2023/01/27 12:43:51;;;;;;;2.37;2.20;;;8.40;99.90;;;;;;5052909;28;20414;-71
2023/01/27 12:46:24;;;;;;;2.50;1.80;;;8.30;99.90;;;;;;5079177;28;20867;-71
2023/01/27 12:48:53;;;;;;;2.17;1.90;;;8.30;99.90;;;;;;5073036;28;20945;-72
2023/01/27 12:51:21;;;;;;;2.40;1.60;;;8.30;99.90;;;;;;5068108;28;20453;-71
2023/01/27 12:53:49;;;;;;;2.30;2.10;;;8.30;99.90;;;;;;5055197;28;20452;-71
2023/01/27 12:56:22;;;;;;;1.80;1.50;;;8.20;99.90;;;;;;5072402;28;20426;-72
2023/01/27 12:58:54;;;;;;;1.10;1.00;;;8.20;99.90;;;;;;5071340;28;20430;-71
2023/01/27 13:01:49;;;;;;;1.50;1.33;;;8.10;99.90;;;;;;5069700;28;20463;-71
2023/01/27 13:04:16;;;;;;;1.80;1.53;;;8.10;99.90;;;;;;5043042;28;20421;-71
2023/01/27 13:06:52;;;;;;;1.37;1.03;;;8.10;99.90;;;;;;5052596;28;20480;-71
2023/01/27 13:09:26;;;;;;;2.17;1.10;;;8.00;99.90;;;;;;5051107;28;20478;-71
2023/01/27 13:11:55;;;;;;;1.43;1.33;;;7.90;99.90;;;;;;5051312;28;20436;-71
2023/01/27 13:14:21;;;;;;;1.43;1.07;;;7.80;99.90;;;;;;5062234;28;20851;-72
2023/01/27 13:16:57;;;;;;;3.63;2.80;;;7.80;99.90;;;;;;5070472;28;20401;-71
2023/01/27 13:19:33;;;;;;;1.70;1.20;;;7.70;99.90;;;;;;5057055;28;20248;-70
2023/01/27 13:21:59;;;;;;;1.50;1.17;;;7.60;99.90;;;;;;5072128;28;20400;-70
2023/01/27 13:24:35;;;;;;;2.10;1.40;;;7.60;99.90;;;;;;5071458;28;20497;-72
2023/01/27 13:27:04;;;;;;;2.10;1.30;;;7.50;99.90;;;;;;5072239;28;20928;-71
2023/01/27 13:29:32;;;;;;;1.43;1.23;;;7.40;99.90;;;;;;5071979;28;20520;-69
2023/01/27 13:32:08;;;;;;;1.70;1.40;;;7.40;99.90;;;;;;5071987;28;20416;-72
2023/01/27 13:35:05;;;;;;;1.10;0.80;;;7.30;99.90;;;;;;5065873;28;20441;-70
2023/01/27 13:37:32;;;;;;;2.67;1.90;;;7.30;99.90;;;;;;5051646;28;20413;-70
2023/01/27 13:40:16;;;;;;;5.00;2.17;;;7.40;99.90;;;;;;5050494;28;20425;-70